createdAt,value
2024-05-09T00:00:35.816Z,103030.34
2024-05-09T00:03:10.500Z,103030.63
2024-05-09T00:05:40.103Z,103044.81
2024-05-09T00:08:07.158Z,103033.44
2024-05-09T00:10:37.442Z,103032.00
2024-05-09T00:13:07.205Z,103036.25
2024-05-09T00:15:35.039Z,103028.66
2024-05-09T00:18:03.126Z,103034.56
2024-05-09T00:20:37.527Z,103032.84
2024-05-09T00:23:07.997Z,103021.22
2024-05-09T00:25:35.433Z,103030.06
2024-05-09T00:28:02.459Z,103031.28
2024-05-09T00:30:34.345Z,103019.56
2024-05-09T00:33:04.867Z,103014.28
2024-05-09T00:35:32.392Z,103009.41
2024-05-09T00:37:59.716Z,103018.22
2024-05-09T00:40:37.211Z,103021.38
2024-05-09T00:43:06.843Z,103011.88
2024-05-09T00:45:36.342Z,103016.19
2024-05-09T00:48:08.584Z,103009.94
2024-05-09T00:50:40.487Z,103013.34
2024-05-09T00:53:09.936Z,103009.94
2024-05-09T00:55:38.048Z,103018.72
2024-05-09T00:58:05.210Z,103009.69
2024-05-09T01:00:38.440Z,103015.56
2024-05-09T01:03:08.269Z,103011.16
2024-05-09T01:05:35.728Z,103018.00
2024-05-09T01:08:03.165Z,103005.91
2024-05-09T01:10:34.506Z,103007.63
2024-05-09T01:13:06.101Z,103004.06
2024-05-09T01:15:34.181Z,103008.59
2024-05-09T01:18:04.042Z,103005.06
2024-05-09T01:20:39.958Z,103005.81
2024-05-09T01:23:10.187Z,103007.03
2024-05-09T01:25:37.334Z,102998.34
2024-05-09T01:28:04.174Z,103001.78
2024-05-09T01:30:35.380Z,103002.00
2024-05-09T01:33:09.073Z,102993.22
2024-05-09T01:35:38.787Z,102988.94
2024-05-09T01:38:05.944Z,102978.91
2024-05-09T01:40:37.586Z,102986.75
2024-05-09T01:43:07.375Z,102988.19
2024-05-09T01:45:34.191Z,102986.63
2024-05-09T01:48:01.451Z,102982.13
2024-05-09T01:50:37.875Z,102981.25
2024-05-09T01:53:08.966Z,102986.50
2024-05-09T01:55:35.704Z,102987.94
2024-05-09T01:58:02.302Z,102990.41
2024-05-09T02:00:37.375Z,102990.41
2024-05-09T02:03:10.213Z,102996.03
2024-05-09T02:05:37.772Z,102992.59
2024-05-09T02:08:05.526Z,102994.31
2024-05-09T02:10:33.277Z,102984.53
2024-05-09T02:13:00.353Z,102991.09
2024-05-09T02:15:26.935Z,102993.88
2024-05-09T02:17:53.747Z,102999.88
2024-05-09T02:20:30.132Z,102998.44
2024-05-09T02:23:04.257Z,102992.25
2024-05-09T02:25:31.615Z,102999.31
2024-05-09T02:27:58.280Z,103004.56
2024-05-09T02:30:34.928Z,103002.84
2024-05-09T02:33:06.383Z,103011.06
2024-05-09T02:35:33.606Z,103002.59
2024-05-09T02:38:00.522Z,102998.22
2024-05-09T02:40:35.613Z,102995.16
2024-05-09T02:43:05.687Z,102997.78
2024-05-09T02:45:32.465Z,102994.84
2024-05-09T02:47:59.552Z,102987.19
2024-05-09T02:50:34.155Z,102981.56
2024-05-09T02:53:05.427Z,102990.00
2024-05-09T02:55:32.213Z,102984.25
2024-05-09T02:57:58.855Z,102983.75
2024-05-09T03:00:34.477Z,102977.81
2024-05-09T03:03:08.159Z,102975.75
2024-05-09T03:05:35.894Z,102974.50
2024-05-09T03:08:02.701Z,102970.13
2024-05-09T03:10:35.330Z,102978.53
2024-05-09T03:13:15.321Z,102950.41
2024-05-09T03:15:43.641Z,102976.06
2024-05-09T03:18:11.508Z,102977.03
2024-05-09T03:20:39.162Z,102979.00
2024-05-09T03:23:08.144Z,102966.72
2024-05-09T03:25:35.958Z,102978.81
2024-05-09T03:28:02.668Z,102976.25
2024-05-09T03:30:36.681Z,102978.81
2024-05-09T03:33:13.389Z,102974.34
2024-05-09T03:35:41.114Z,102975.13
2024-05-09T03:38:07.899Z,102978.78
2024-05-09T03:40:34.502Z,102979.03
2024-05-09T03:43:01.123Z,102970.94
2024-05-09T03:45:27.775Z,102980.56
2024-05-09T03:47:54.592Z,102982.06
2024-05-09T03:50:29.573Z,102979.97
2024-05-09T03:53:00.818Z,102982.63
2024-05-09T03:55:27.660Z,102978.84
2024-05-09T03:57:54.263Z,102975.19
2024-05-09T04:00:30.477Z,102966.09
2024-05-09T04:03:02.880Z,102973.19
2024-05-09T04:05:30.773Z,102973.19
2024-05-09T04:07:57.774Z,102973.47
2024-05-09T04:10:31.343Z,102981.56
2024-05-09T04:13:00.609Z,102967.38
2024-05-09T04:15:27.244Z,102973.03
2024-05-09T04:17:54.135Z,102974.13
2024-05-09T04:20:32.836Z,102977.19
2024-05-09T04:23:05.842Z,102976.97
2024-05-09T04:25:32.721Z,102967.94
2024-05-09T04:27:59.421Z,102970.13
2024-05-09T04:30:34.804Z,102971.34
2024-05-09T04:33:06.414Z,102978.06
2024-05-09T04:35:34.038Z,102980.63
2024-05-09T04:38:00.876Z,102971.06
2024-05-09T04:40:33.231Z,102972.06
2024-05-09T04:43:06.631Z,102973.16
2024-05-09T04:45:33.638Z,102976.31
2024-05-09T04:48:00.815Z,102974.47
2024-05-09T04:50:35.708Z,102974.09
2024-05-09T04:53:06.552Z,102972.63
2024-05-09T04:55:33.948Z,102986.06
2024-05-09T04:58:01.092Z,102979.53
2024-05-09T05:00:35.510Z,102983.19
2024-05-09T05:03:07.166Z,102983.53
2024-05-09T05:05:37.821Z,102988.91
2024-05-09T05:08:05.011Z,102987.88
2024-05-09T05:10:36.079Z,102982.53
2024-05-09T05:13:30.466Z,102978.66
2024-05-09T05:15:58.219Z,102984.47
2024-05-09T05:18:26.863Z,102987.56
2024-05-09T05:20:55.509Z,102985.09
2024-05-09T05:23:23.250Z,102988.25
2024-05-09T05:25:52.799Z,102989.88
2024-05-09T05:28:20.119Z,102994.25
2024-05-09T05:30:46.835Z,102992.47
2024-05-09T05:33:14.913Z,102996.56
2024-05-09T05:35:42.383Z,102993.88
2024-05-09T05:38:10.164Z,102988.94
2024-05-09T05:40:38.640Z,102985.78
2024-05-09T05:43:10.421Z,102992.53
2024-05-09T05:45:37.894Z,102997.91
2024-05-09T05:48:06.328Z,103003.78
2024-05-09T05:50:36.696Z,102999.97
2024-05-09T05:53:09.334Z,103000.88
2024-05-09T05:55:40.016Z,103007.16
2024-05-09T05:58:10.881Z,103001.47
2024-05-09T06:00:39.835Z,103003.31
2024-05-09T06:03:09.294Z,102995.06
2024-05-09T06:05:37.316Z,102993.75
2024-05-09T06:08:04.586Z,103003.59
2024-05-09T06:10:37.983Z,103005.69
2024-05-09T06:13:07.454Z,103011.69
2024-05-09T06:15:34.239Z,102996.56
2024-05-09T06:18:01.220Z,103004.81
2024-05-09T06:20:35.462Z,103005.13
2024-05-09T06:23:05.817Z,103005.53
2024-05-09T06:25:32.667Z,102998.66
2024-05-09T06:28:00.642Z,102993.25
2024-05-09T06:30:36.606Z,102998.78
2024-05-09T06:33:07.831Z,103001.09
2024-05-09T06:35:35.147Z,103000.56
2024-05-09T06:38:02.161Z,103009.69
2024-05-09T06:40:36.802Z,102988.66
2024-05-09T06:43:13.760Z,103012.25
2024-05-09T06:45:40.903Z,103005.06
2024-05-09T06:48:09.287Z,102997.69
2024-05-09T06:50:38.322Z,103017.03
2024-05-09T06:53:06.604Z,103000.44
2024-05-09T06:55:33.312Z,103008.53
2024-05-09T06:57:59.983Z,102991.19
2024-05-09T07:00:34.804Z,103000.44
2024-05-09T07:03:09.307Z,102994.41
2024-05-09T07:05:36.451Z,102986.44
2024-05-09T07:08:04.315Z,102987.94
2024-05-09T07:10:35.048Z,102987.34
2024-05-09T07:13:02.704Z,102986.19
2024-05-09T07:15:29.260Z,102982.81
2024-05-09T07:17:56.118Z,102982.59
2024-05-09T07:20:31.883Z,102967.94
2024-05-09T07:23:02.578Z,102978.28
2024-05-09T07:25:29.529Z,102978.19
2024-05-09T07:27:56.212Z,102981.09
2024-05-09T07:30:27.833Z,102977.41
2024-05-09T07:33:00.184Z,102974.38
2024-05-09T07:35:27.265Z,102971.75
2024-05-09T07:37:54.128Z,102983.72
2024-05-09T07:40:31.548Z,102981.34
2024-05-09T07:43:06.763Z,102978.53
2024-05-09T07:52:23.288Z,102971.41
2024-05-09T07:53:38.751Z,102979.81
2024-05-09T07:56:07.501Z,102982.16
2024-05-09T07:58:34.788Z,102994.06
2024-05-09T08:01:04.088Z,102983.69
2024-05-09T08:03:31.445Z,102980.25
2024-05-09T08:05:58.128Z,102974.34
2024-05-09T08:08:24.861Z,102976.47
2024-05-09T08:10:51.982Z,102981.41
2024-05-09T08:13:18.779Z,102969.28
2024-05-09T08:15:45.722Z,102973.38
2024-05-09T08:18:12.748Z,102976.03
2024-05-09T08:20:40.231Z,102980.69
2024-05-09T08:23:07.535Z,102983.78
2024-05-09T08:25:34.156Z,102979.41
2024-05-09T08:28:00.871Z,102979.47
2024-05-09T08:30:33.680Z,102978.22
2024-05-09T08:33:04.516Z,102977.00
2024-05-09T08:35:31.781Z,102983.75
2024-05-09T08:37:58.638Z,102981.84
2024-05-09T08:40:32.926Z,102980.66
2024-05-09T08:43:03.067Z,102989.00
2024-05-09T08:45:31.313Z,102981.41
2024-05-09T08:47:59.649Z,102983.88
2024-05-09T08:50:32.488Z,102972.09
2024-05-09T08:53:05.552Z,102970.56
2024-05-09T08:55:33.522Z,102970.97
2024-05-09T08:58:03.391Z,102965.88
2024-05-09T09:00:36.784Z,102964.75
2024-05-09T09:03:09.108Z,102966.91
2024-05-09T09:05:38.824Z,102973.50
2024-05-09T09:08:08.059Z,102972.75
2024-05-09T09:10:35.646Z,102981.47
2024-05-09T09:13:04.893Z,102951.97
2024-05-09T09:15:32.902Z,102964.94
2024-05-09T09:18:01.249Z,102962.31
2024-05-09T09:20:35.730Z,102961.38
2024-05-09T09:23:04.623Z,102951.16
2024-05-09T09:25:31.927Z,102939.13
2024-05-09T09:27:59.202Z,102943.97
2024-05-09T09:30:36.326Z,102946.00
2024-05-09T09:33:05.970Z,102935.31
2024-05-09T09:35:33.013Z,102942.06
2024-05-09T09:38:03.209Z,102940.09
2024-05-09T09:40:37.582Z,102947.34
2024-05-09T09:43:19.180Z,102936.16
2024-05-09T09:45:46.947Z,102947.63
2024-05-09T09:48:15.323Z,102933.75
2024-05-09T09:50:42.452Z,102937.91
2024-05-09T09:53:10.001Z,102930.47
2024-05-09T09:55:37.886Z,102934.34
2024-05-09T09:58:05.877Z,102937.38
2024-05-09T10:00:34.302Z,102935.56
2024-05-09T10:03:01.977Z,102936.38
2024-05-09T10:05:29.795Z,102933.31
2024-05-09T10:07:58.498Z,102925.84
2024-05-09T10:10:32.006Z,102927.66
2024-05-09T10:13:06.526Z,102917.81
2024-05-09T10:16:07.707Z,102914.34
2024-05-09T10:18:38.099Z,102917.31
2024-05-09T10:21:19.097Z,102906.47
2024-05-09T10:23:59.762Z,102901.00
2024-05-09T10:26:38.989Z,102904.25
2024-05-09T10:29:16.211Z,102889.03
2024-05-09T10:31:44.215Z,102908.50
2024-05-09T10:34:22.196Z,102909.34
2024-05-09T10:36:55.739Z,102891.13
2024-05-09T10:39:22.835Z,102893.66
2024-05-09T10:41:49.790Z,102905.97
2024-05-09T10:44:17.486Z,102905.09
2024-05-09T10:46:47.750Z,102892.00
2024-05-09T10:49:15.062Z,102895.81
2024-05-09T10:51:44.342Z,102882.81
2024-05-09T10:54:11.330Z,102871.03
2024-05-09T10:56:38.029Z,102880.09
2024-05-09T10:59:05.170Z,102881.84
2024-05-09T11:01:32.311Z,102885.41
2024-05-09T11:03:59.268Z,102873.44
2024-05-09T11:06:26.052Z,102877.50
2024-05-09T11:08:52.938Z,102868.34
2024-05-09T11:11:20.077Z,102865.59
2024-05-09T11:13:46.732Z,102868.88
2024-05-09T11:16:19.726Z,102862.63
2024-05-09T11:18:55.116Z,102857.88
2024-05-09T11:21:22.401Z,102853.97
2024-05-09T11:23:49.066Z,102843.56
2024-05-09T11:26:19.219Z,102858.75
2024-05-09T11:28:46.294Z,102841.09
2024-05-09T11:31:13.050Z,102856.91
2024-05-09T11:33:42.214Z,102865.84
2024-05-09T11:36:09.649Z,102855.25
2024-05-09T11:38:36.431Z,102834.56
2024-05-09T11:41:03.844Z,102843.59
2024-05-09T11:43:30.638Z,102827.97
2024-05-09T11:45:57.881Z,102826.53
2024-05-09T11:48:25.985Z,102833.38
2024-05-09T11:50:54.518Z,102833.19
2024-05-09T11:53:21.148Z,102825.63
2024-05-09T11:55:47.746Z,102829.66
2024-05-09T11:58:17.145Z,102825.88
2024-05-09T12:00:44.416Z,102824.69
2024-05-09T12:03:11.249Z,102822.50
2024-05-09T12:05:37.981Z,102820.44
2024-05-09T12:08:05.008Z,102820.34
2024-05-09T12:10:34.438Z,102817.00
2024-05-09T12:13:04.970Z,102828.31
2024-05-09T12:15:33.151Z,102815.69
2024-05-09T12:18:02.838Z,102798.38
2024-05-09T12:20:36.645Z,102813.59
2024-05-09T12:37:38.078Z,102781.06
2024-05-09T12:40:10.531Z,102780.69
2024-05-09T12:42:42.283Z,102797.31
2024-05-09T12:45:09.000Z,102788.25
2024-05-09T12:47:35.779Z,102790.81
2024-05-09T12:50:03.947Z,102787.44
2024-05-09T13:03:57.335Z,102790.28
2024-05-09T13:06:24.008Z,102786.13
2024-05-09T13:08:50.689Z,102768.41
2024-05-09T13:11:17.360Z,102762.06
2024-05-09T13:13:44.544Z,102765.28
2024-05-09T13:16:11.358Z,102773.63
2024-05-09T13:18:38.076Z,102757.94
2024-05-09T13:21:05.174Z,102771.75
2024-05-09T13:23:31.726Z,102759.59
2024-05-09T13:25:58.475Z,102757.09
2024-05-09T13:28:25.248Z,102746.06
2024-05-09T13:30:51.897Z,102746.25
2024-05-09T13:33:18.773Z,102746.28
2024-05-09T13:35:49.490Z,102755.22
2024-05-09T13:38:21.342Z,102748.75
2024-05-09T13:40:48.689Z,102739.78
2024-05-09T13:54:32.439Z,102727.34
2024-05-09T13:57:01.416Z,102730.41
2024-05-09T13:59:27.962Z,102710.94
2024-05-09T14:01:54.740Z,102725.81
2024-05-09T14:04:21.487Z,102721.19
2024-05-09T14:06:48.736Z,102716.53
2024-05-09T14:09:15.584Z,102716.34
2024-05-09T14:11:42.614Z,102707.88
2024-05-09T14:14:09.190Z,102717.59
2024-05-09T14:16:36.006Z,102708.13
2024-05-09T14:19:03.291Z,102707.47
2024-05-09T14:21:31.971Z,102713.13
2024-05-09T14:24:01.136Z,102701.34
2024-05-09T14:26:27.865Z,102703.47
2024-05-09T14:28:54.537Z,102699.25
2024-05-09T14:31:21.283Z,102702.34
2024-05-09T14:33:48.092Z,102699.00
2024-05-09T14:36:14.916Z,102696.50
2024-05-09T14:38:41.663Z,102703.19
2024-05-09T14:41:09.598Z,102696.63
2024-05-09T14:43:36.260Z,102693.66
2024-05-09T14:46:03.213Z,102690.25
2024-05-09T14:48:30.082Z,102685.47
2024-05-09T14:50:56.790Z,102680.81
2024-05-09T14:53:27.067Z,102658.28
2024-05-09T14:55:54.030Z,102678.84
2024-05-09T14:58:20.867Z,102680.09
2024-05-09T15:00:50.384Z,102674.66
2024-05-09T15:03:19.871Z,102672.09
2024-05-09T15:05:47.848Z,102678.81
2024-05-09T15:08:17.342Z,102672.94
2024-05-09T15:10:44.163Z,102656.53
2024-05-09T15:13:13.244Z,102671.47
2024-05-09T15:15:41.910Z,102673.16
2024-05-09T15:18:08.832Z,102683.63
2024-05-09T15:20:37.101Z,102681.38
2024-05-09T15:23:05.351Z,102672.44
2024-05-09T15:25:36.392Z,102671.25
2024-05-09T15:28:04.151Z,102668.72
2024-05-09T15:30:33.179Z,102672.28
2024-05-09T15:33:03.205Z,102671.63
2024-05-09T15:35:29.969Z,102670.63
2024-05-09T15:37:56.801Z,102655.56
2024-05-09T15:40:34.417Z,102663.38
2024-05-09T15:43:06.514Z,102671.94
2024-05-09T15:45:34.465Z,102648.50
2024-05-09T15:48:02.620Z,102641.25
2024-05-09T15:50:36.925Z,102649.44
2024-05-09T15:53:07.999Z,102645.25
2024-05-09T15:55:35.548Z,102655.56
2024-05-09T15:58:03.704Z,102665.06
2024-05-09T16:00:37.832Z,102656.66
2024-05-09T16:03:09.146Z,102659.19
2024-05-09T16:05:36.609Z,102653.28
2024-05-09T16:08:03.710Z,102653.25
2024-05-09T16:10:33.115Z,102629.66
2024-05-09T16:13:02.393Z,102644.41
2024-05-09T16:15:29.812Z,102640.59
2024-05-09T16:17:59.389Z,102619.50
2024-05-09T16:20:34.803Z,102643.34
2024-05-09T16:23:06.755Z,102621.84
2024-05-09T16:25:33.542Z,102645.34
2024-05-09T16:28:00.494Z,102644.50
2024-05-09T16:30:34.259Z,102634.63
2024-05-09T16:33:04.038Z,102631.63
2024-05-09T16:35:31.559Z,102627.63
2024-05-09T16:37:58.195Z,102622.22
2024-05-09T16:40:34.483Z,102611.72
2024-05-09T16:43:06.280Z,102603.59
2024-05-09T16:45:33.352Z,102604.44
2024-05-09T16:48:00.696Z,102628.84
2024-05-09T16:50:32.600Z,102625.25
2024-05-09T16:53:01.842Z,102595.44
2024-05-09T16:55:28.744Z,102607.03
2024-05-09T16:57:56.555Z,102608.06
2024-05-09T17:00:34.864Z,102613.94
2024-05-09T17:03:07.749Z,102613.81
2024-05-09T17:05:35.534Z,102604.63
2024-05-09T17:08:03.027Z,102606.41
2024-05-09T17:10:33.543Z,102613.44
2024-05-09T17:13:02.561Z,102615.56
2024-05-09T17:15:29.869Z,102606.72
2024-05-09T17:17:56.790Z,102604.94
2024-05-09T17:20:31.315Z,102595.31
2024-05-09T17:23:02.246Z,102610.78
2024-05-09T17:25:29.212Z,102612.63
2024-05-09T17:27:56.090Z,102619.09
2024-05-09T17:30:29.142Z,102620.63
2024-05-09T17:33:02.426Z,102586.41
2024-05-09T17:35:29.299Z,102612.38
2024-05-09T17:37:56.545Z,102613.72
2024-05-09T17:40:30.575Z,102623.97
2024-05-09T17:43:00.904Z,102626.16
2024-05-09T17:45:27.527Z,102632.69
2024-05-09T17:47:54.403Z,102616.53
2024-05-09T17:50:27.547Z,102603.91
2024-05-09T17:53:00.730Z,102597.69
2024-05-09T17:55:27.594Z,102619.53
2024-05-09T17:57:54.452Z,102615.88
2024-05-09T18:00:29.313Z,102617.66
2024-05-09T18:03:04.546Z,102620.88
2024-05-09T18:05:31.589Z,102614.66
2024-05-09T18:07:58.724Z,102614.69
2024-05-09T18:10:30.059Z,102616.19
2024-05-09T18:13:02.663Z,102610.19
2024-05-09T18:15:29.346Z,102619.09
2024-05-09T18:17:56.158Z,102606.91
2024-05-09T18:20:32.746Z,102620.72
2024-05-09T18:23:07.634Z,102627.03
2024-05-09T18:25:34.568Z,102629.91
2024-05-09T18:28:05.624Z,102625.75
2024-05-09T18:30:35.427Z,102629.69
2024-05-09T18:33:05.927Z,102623.31
2024-05-09T18:35:33.958Z,102625.47
2024-05-09T18:38:00.741Z,102622.56
2024-05-09T18:40:34.057Z,102621.63
2024-05-09T18:43:05.531Z,102623.56
2024-05-09T18:45:33.666Z,102624.88
2024-05-09T18:48:00.680Z,102621.50
2024-05-09T18:50:34.952Z,102616.22
2024-05-09T18:53:08.952Z,102620.28
2024-05-09T18:55:35.978Z,102628.22
2024-05-09T18:58:04.508Z,102633.91
2024-05-09T19:00:35.801Z,102632.13
2024-05-09T19:03:09.466Z,102633.75
2024-05-09T19:05:38.866Z,102633.09
2024-05-09T19:08:07.296Z,102626.41
2024-05-09T19:10:35.519Z,102631.75
2024-05-09T19:13:07.996Z,102633.34
2024-05-09T19:15:38.578Z,102584.72
2024-05-09T19:18:06.177Z,102633.44
2024-05-09T19:20:35.253Z,102642.03
2024-05-09T19:23:03.662Z,102632.75
2024-05-09T19:25:30.463Z,102631.13
2024-05-09T19:27:57.156Z,102634.50
2024-05-09T19:30:32.885Z,102636.06
2024-05-09T19:33:05.867Z,102642.47
2024-05-09T19:35:32.924Z,102639.69
2024-05-09T19:37:59.786Z,102646.94
2024-05-09T19:40:31.399Z,102643.84
2024-05-09T19:43:01.159Z,102633.34
2024-05-09T19:45:28.193Z,102636.09
2024-05-09T19:47:55.213Z,102626.47
2024-05-09T19:50:30.314Z,102639.59
2024-05-09T19:53:03.276Z,102656.63
2024-05-09T19:55:30.033Z,102653.59
2024-05-09T19:57:57.073Z,102652.19
2024-05-09T20:00:32.457Z,102644.41
2024-05-09T20:03:02.872Z,102644.22
2024-05-09T20:05:33.286Z,102652.41
2024-05-09T20:08:00.196Z,102657.38
2024-05-09T20:10:31.735Z,102662.13
2024-05-09T20:13:00.732Z,102663.34
2024-05-09T20:15:27.432Z,102667.28
2024-05-09T20:17:54.670Z,102644.88
2024-05-09T20:20:32.172Z,102646.22
2024-05-09T20:23:04.021Z,102667.94
2024-05-09T20:25:30.767Z,102669.66
2024-05-09T20:27:57.580Z,102667.31
2024-05-09T20:30:31.279Z,102670.34
2024-05-09T20:33:00.558Z,102674.75
2024-05-09T20:35:30.545Z,102670.00
2024-05-09T20:37:57.257Z,102669.81
2024-05-09T20:40:29.216Z,102672.72
2024-05-09T20:43:00.367Z,102674.34
2024-05-09T20:45:27.133Z,102662.00
2024-05-09T20:47:53.949Z,102646.53
2024-05-09T20:50:28.935Z,102660.94
2024-05-09T20:53:03.718Z,102660.09
2024-05-09T20:55:30.545Z,102654.63
2024-05-09T20:57:57.850Z,102648.53
2024-05-09T21:00:34.348Z,102651.38
2024-05-09T21:03:06.802Z,102653.56
2024-05-09T21:05:34.952Z,102613.56
2024-05-09T21:08:02.165Z,102642.56
2024-05-09T21:10:32.826Z,102635.25
2024-05-09T21:13:01.152Z,102640.28
2024-05-09T21:15:28.075Z,102650.78
2024-05-09T21:17:54.709Z,102619.25
2024-05-09T21:20:28.264Z,102651.00
2024-05-09T21:22:58.293Z,102648.41
2024-05-09T21:25:24.915Z,102621.81
2024-05-09T21:27:51.738Z,102657.50
2024-05-09T21:30:27.870Z,102656.19
2024-05-09T21:33:04.672Z,102650.06
2024-05-09T21:35:31.507Z,102650.34
2024-05-09T21:37:58.042Z,102653.72
2024-05-09T21:40:31.560Z,102653.34
2024-05-09T21:43:01.587Z,102646.34
2024-05-09T21:45:28.346Z,102639.88
2024-05-09T21:47:55.308Z,102640.50
2024-05-09T21:50:28.747Z,102631.81
2024-05-09T21:53:03.546Z,102635.88
2024-05-09T21:55:30.254Z,102632.38
2024-05-09T21:57:57.062Z,102636.16
2024-05-09T22:00:32.051Z,102636.94
2024-05-09T22:03:03.497Z,102635.44
2024-05-09T22:05:30.728Z,102614.69
2024-05-09T22:07:57.518Z,102645.91
2024-05-09T22:10:30.597Z,102644.91
2024-05-09T22:13:00.934Z,102644.56
2024-05-09T22:15:27.664Z,102640.09
2024-05-09T22:17:56.436Z,102642.66
2024-05-09T22:20:32.857Z,102642.88
2024-05-09T22:23:03.914Z,102642.72
2024-05-09T22:25:31.725Z,102653.56
2024-05-09T22:27:59.101Z,102651.16
2024-05-09T22:30:34.304Z,102643.38
2024-05-09T22:33:05.672Z,102657.75
2024-05-09T22:35:32.662Z,102660.47
2024-05-09T22:37:59.226Z,102659.75
2024-05-09T22:40:38.011Z,102662.78
2024-05-09T22:43:12.751Z,102654.22
2024-05-09T22:45:39.730Z,102644.59
2024-05-09T22:48:07.996Z,102659.72
2024-05-09T22:50:34.893Z,102661.72
2024-05-09T22:53:01.734Z,102658.63
2024-05-09T22:55:28.637Z,102655.16
2024-05-09T22:57:55.527Z,102652.72
2024-05-09T23:00:30.838Z,102658.69
2024-05-09T23:03:00.076Z,102659.31
2024-05-09T23:05:27.173Z,102660.31
2024-05-09T23:07:53.849Z,102658.19
2024-05-09T23:10:27.760Z,102663.44
2024-05-09T23:12:59.342Z,102631.75
2024-05-09T23:15:26.057Z,102634.44
2024-05-09T23:17:52.863Z,102637.88
2024-05-09T23:20:29.860Z,102651.25
2024-05-09T23:23:03.792Z,102643.53
2024-05-09T23:25:30.435Z,102646.94
2024-05-09T23:27:57.157Z,102644.78
2024-05-09T23:30:33.338Z,102639.41
2024-05-09T23:33:04.822Z,102644.44
2024-05-09T23:35:31.669Z,102649.53
2024-05-09T23:37:58.234Z,102640.59
2024-05-09T23:40:36.354Z,102626.72
2024-05-09T23:43:06.531Z,102629.72
2024-05-09T23:45:33.363Z,102603.88
2024-05-09T23:48:00.301Z,102643.09
2024-05-09T23:50:34.123Z,102650.22
2024-05-09T23:53:04.019Z,102641.56
2024-05-09T23:55:31.425Z,102637.00
2024-05-09T23:57:58.290Z,102643.44
